createdAt,value
2022-10-08T00:01:27.695Z,8.90
2022-10-08T00:03:55.276Z,5.90
2022-10-08T00:06:31.250Z,10.40
2022-10-08T00:09:05.859Z,9.00
2022-10-08T00:11:38.121Z,9.30
2022-10-08T00:14:06.248Z,7.40
2022-10-08T00:17:45.367Z,9.00
2022-10-08T00:20:12.152Z,8.50
2022-10-08T00:22:38.855Z,8.80
2022-10-08T00:25:06.177Z,9.50
2022-10-08T00:27:34.708Z,7.80
2022-10-08T00:30:01.450Z,8.60
2022-10-08T00:32:29.504Z,8.40
2022-10-08T00:34:57.176Z,8.20
2022-10-08T00:37:25.691Z,9.10
2022-10-08T00:39:52.668Z,9.70
2022-10-08T00:42:19.342Z,7.70
2022-10-08T00:45:01.130Z,7.50
2022-10-08T00:47:33.760Z,7.10
2022-10-08T00:50:08.261Z,7.10
2022-10-08T00:52:42.027Z,10.20
2022-10-08T00:55:11.766Z,7.50
2022-10-08T00:57:39.325Z,6.80
2022-10-08T01:00:22.167Z,9.10
2022-10-08T01:02:49.576Z,7.80
2022-10-08T01:05:26.541Z,6.40
2022-10-08T01:08:15.280Z,7.80
2022-10-08T01:11:01.079Z,9.40
2022-10-08T01:14:29.076Z,8.80
2022-10-08T01:17:42.029Z,9.10
2022-10-08T01:20:27.682Z,6.80
2022-10-08T01:23:12.698Z,7.60
2022-10-08T01:26:28.708Z,7.10
2022-10-08T01:29:21.400Z,6.00
2022-10-08T01:31:55.238Z,7.60
2022-10-08T01:34:41.057Z,5.40
2022-10-08T01:37:27.041Z,7.50
2022-10-08T01:39:59.572Z,9.10
2022-10-08T01:42:29.277Z,8.90
2022-10-08T01:45:03.687Z,10.20
2022-10-08T01:47:31.595Z,6.50
2022-10-08T01:50:33.623Z,10.10
2022-10-08T01:53:11.627Z,7.00
2022-10-08T01:55:48.207Z,7.50
2022-10-08T01:58:30.378Z,7.70
2022-10-08T02:01:08.653Z,7.50
2022-10-08T02:03:35.439Z,12.60
2022-10-08T02:06:06.189Z,8.60
2022-10-08T02:08:32.980Z,9.10
2022-10-08T02:10:59.843Z,11.30
2022-10-08T02:13:26.907Z,7.90
2022-10-08T02:16:10.500Z,8.80
2022-10-08T02:18:43.129Z,4.60
2022-10-08T02:21:20.672Z,6.00
2022-10-08T02:24:07.622Z,8.20
2022-10-08T02:26:43.317Z,7.10
2022-10-08T02:29:16.637Z,7.60
2022-10-08T02:31:52.269Z,7.50
2022-10-08T02:34:48.286Z,9.40
2022-10-08T02:37:23.345Z,8.00
2022-10-08T02:40:00.333Z,5.20
2022-10-08T02:42:30.057Z,7.50
2022-10-08T02:45:07.515Z,7.70
2022-10-08T02:47:38.677Z,7.90
2022-10-08T02:50:13.206Z,8.50
2022-10-08T02:52:45.330Z,6.90
2022-10-08T02:55:30.412Z,7.50
2022-10-08T02:58:06.427Z,4.30
2022-10-08T03:00:42.934Z,4.90
2022-10-08T03:03:24.099Z,8.10
2022-10-08T03:05:52.640Z,9.90
2022-10-08T03:08:21.521Z,11.40
2022-10-08T03:10:49.404Z,8.70
2022-10-08T03:13:18.351Z,6.20
2022-10-08T03:15:46.903Z,11.00
2022-10-08T03:18:14.527Z,8.80
2022-10-08T03:20:46.424Z,7.40
2022-10-08T03:23:17.563Z,9.90
2022-10-08T03:25:44.721Z,7.30
2022-10-08T03:28:12.385Z,6.80
2022-10-08T03:30:39.232Z,9.30
2022-10-08T03:33:06.066Z,9.90
2022-10-08T03:35:32.765Z,6.80
2022-10-08T03:37:59.443Z,8.50
2022-10-08T03:40:26.203Z,7.30
2022-10-08T03:42:52.897Z,9.20
2022-10-08T03:45:19.525Z,12.00
2022-10-08T03:47:51.662Z,9.10
2022-10-08T03:50:20.800Z,10.10
2022-10-08T03:52:47.794Z,12.40
2022-10-08T03:55:14.836Z,9.60
2022-10-08T03:57:41.698Z,11.10
2022-10-08T04:00:09.596Z,8.40
2022-10-08T04:02:36.412Z,8.80
2022-10-08T04:05:03.239Z,10.20
2022-10-08T04:07:29.957Z,11.60
2022-10-08T04:09:56.595Z,9.40
2022-10-08T04:12:23.200Z,10.30
2022-10-08T04:14:49.863Z,10.80
2022-10-08T04:17:16.597Z,12.60
2022-10-08T04:19:43.276Z,10.30
2022-10-08T04:22:09.861Z,10.20
2022-10-08T04:24:36.467Z,10.70
2022-10-08T04:27:03.137Z,13.80
2022-10-08T04:29:29.745Z,7.80
2022-10-08T04:31:56.376Z,10.50
2022-10-08T04:34:23.033Z,9.00
2022-10-08T04:36:49.663Z,12.50
2022-10-08T04:39:16.337Z,10.00
2022-10-08T04:41:42.977Z,10.60
2022-10-08T04:44:09.688Z,12.00
2022-10-08T04:46:36.526Z,16.50
2022-10-08T04:49:03.578Z,8.90
2022-10-08T04:51:30.554Z,9.90
2022-10-08T04:53:58.545Z,11.40
2022-10-08T04:56:29.427Z,12.60
2022-10-08T04:59:00.343Z,14.40
2022-10-08T05:01:29.034Z,13.10
2022-10-08T05:03:58.323Z,13.60
2022-10-08T05:06:29.083Z,11.10
2022-10-08T05:08:57.477Z,11.30
2022-10-08T05:11:27.099Z,15.10
2022-10-08T05:13:57.477Z,10.30
2022-10-08T05:16:25.520Z,9.20
2022-10-08T05:18:53.192Z,16.70
2022-10-08T05:21:24.592Z,12.50
2022-10-08T05:24:05.413Z,9.70
2022-10-08T05:26:56.814Z,8.30
2022-10-08T05:29:22.850Z,13.50
2022-10-08T05:31:49.470Z,12.90
2022-10-08T05:34:16.198Z,14.70
2022-10-08T05:36:43.024Z,11.90
2022-10-08T05:39:10.998Z,12.30
2022-10-08T05:41:38.632Z,12.90
2022-10-08T05:44:07.277Z,10.70
2022-10-08T05:46:36.673Z,11.90
2022-10-08T05:49:07.484Z,11.10
2022-10-08T05:51:34.932Z,12.30
2022-10-08T05:54:01.682Z,13.20
2022-10-08T05:56:29.064Z,15.40
2022-10-08T05:58:56.028Z,11.70
2022-10-08T06:01:27.974Z,10.30
2022-10-08T06:04:07.058Z,12.60
2022-10-08T06:06:38.524Z,14.20
2022-10-08T06:09:06.716Z,14.00
2022-10-08T06:11:36.494Z,15.90
2022-10-08T06:14:04.915Z,9.60
2022-10-08T06:16:32.038Z,12.00
2022-10-08T06:18:58.987Z,16.90
2022-10-08T06:21:27.212Z,15.50
2022-10-08T06:23:57.776Z,17.10
2022-10-08T06:26:35.147Z,10.70
2022-10-08T06:29:05.511Z,12.80
2022-10-08T06:31:34.907Z,11.40
2022-10-08T06:34:04.139Z,16.40
2022-10-08T06:36:32.822Z,10.30
2022-10-08T06:39:07.635Z,13.90
2022-10-08T06:41:35.148Z,15.60
2022-10-08T06:44:09.950Z,9.50
2022-10-08T06:46:37.368Z,10.70
2022-10-08T06:49:06.239Z,10.70
2022-10-08T06:51:33.963Z,9.70
2022-10-08T06:54:07.492Z,11.90
2022-10-08T06:56:39.158Z,8.50
2022-10-08T06:59:06.820Z,9.20
2022-10-08T07:01:34.873Z,7.40
2022-10-08T07:04:03.873Z,9.70
2022-10-08T07:06:30.576Z,10.70
2022-10-08T07:09:00.980Z,7.70
2022-10-08T07:11:30.182Z,7.90
2022-10-08T07:13:57.873Z,7.20
2022-10-08T07:16:27.399Z,9.50
2022-10-08T07:18:58.003Z,8.80
2022-10-08T07:21:25.974Z,10.40
2022-10-08T07:23:53.041Z,9.30
2022-10-08T07:26:23.761Z,11.30
2022-10-08T07:29:02.288Z,9.90
2022-10-08T07:31:35.868Z,11.90
2022-10-08T07:34:06.976Z,17.00
2022-10-08T07:36:34.464Z,16.10
2022-10-08T07:39:05.342Z,11.10
2022-10-08T07:41:32.882Z,17.80
2022-10-08T07:44:02.044Z,18.10
2022-10-08T07:46:31.423Z,18.80
2022-10-08T07:52:26.111Z,20.20
2022-10-08T07:54:52.843Z,18.60
2022-10-08T07:57:19.616Z,19.10
2022-10-08T07:59:46.555Z,20.20
2022-10-08T08:02:13.382Z,19.40
2022-10-08T08:04:40.110Z,19.90
2022-10-08T08:07:08.063Z,17.50
2022-10-08T08:09:34.777Z,18.00
2022-10-08T08:12:02.100Z,19.00
2022-10-08T08:14:28.893Z,14.70
2022-10-08T08:16:55.722Z,18.30
2022-10-08T08:19:24.264Z,19.20
2022-10-08T08:21:51.094Z,16.40
2022-10-08T08:24:18.000Z,15.50
2022-10-08T08:26:44.935Z,18.90
2022-10-08T08:29:19.134Z,22.30
2022-10-08T08:31:49.178Z,20.50
2022-10-08T08:34:20.289Z,18.00
2022-10-08T08:36:49.845Z,17.20
2022-10-08T08:39:41.099Z,18.40
2022-10-08T08:42:39.294Z,19.10
2022-10-08T08:45:45.254Z,14.90
2022-10-08T08:48:26.352Z,14.60
2022-10-08T08:50:58.734Z,17.20
2022-10-08T08:53:26.340Z,17.70
2022-10-08T08:55:58.773Z,12.20
2022-10-08T08:59:15.276Z,14.60
2022-10-08T09:01:49.261Z,16.40
2022-10-08T09:04:32.890Z,14.40
2022-10-08T09:07:01.963Z,12.20
2022-10-08T09:09:47.334Z,14.30
2022-10-08T09:12:35.854Z,12.90
2022-10-08T09:15:04.409Z,13.20
2022-10-08T09:17:38.968Z,13.00
2022-10-08T09:20:06.880Z,15.50
2022-10-08T09:22:41.208Z,11.80
2022-10-08T09:25:17.780Z,12.40
2022-10-08T09:27:51.633Z,12.50
2022-10-08T09:30:24.410Z,14.50
2022-10-08T09:32:57.662Z,11.10
2022-10-08T09:35:25.156Z,10.20
2022-10-08T09:37:52.896Z,12.70
2022-10-08T09:40:26.987Z,10.90
2022-10-08T09:43:26.175Z,10.70
2022-10-08T09:45:54.515Z,8.40
2022-10-08T09:48:29.159Z,11.80
2022-10-08T09:51:06.793Z,9.90
2022-10-08T09:53:48.512Z,10.40
2022-10-08T09:56:26.760Z,10.10
2022-10-08T09:59:03.848Z,10.20
2022-10-08T10:01:32.086Z,6.70
2022-10-08T10:04:02.497Z,9.30
2022-10-08T10:06:37.242Z,6.80
2022-10-08T10:09:22.314Z,8.00
2022-10-08T10:12:06.534Z,6.60
2022-10-08T10:14:46.385Z,8.10
2022-10-08T10:17:41.371Z,9.20
2022-10-08T10:20:30.512Z,8.00
2022-10-08T10:23:14.684Z,10.30
2022-10-08T10:26:08.678Z,8.60
2022-10-08T10:29:04.778Z,6.20
2022-10-08T10:31:47.077Z,6.20
2022-10-08T10:34:20.396Z,5.80
2022-10-08T10:36:59.601Z,7.30
2022-10-08T10:39:48.427Z,5.50
2022-10-08T10:42:26.460Z,6.10
2022-10-08T10:45:31.267Z,5.30
2022-10-08T10:47:57.993Z,5.60
2022-10-08T10:51:03.972Z,6.60
2022-10-08T10:53:51.509Z,6.10
2022-10-08T10:56:21.411Z,4.90
2022-10-08T10:59:14.182Z,3.50
2022-10-08T11:01:56.026Z,4.90
2022-10-08T11:05:01.731Z,6.30
2022-10-08T11:08:05.423Z,5.10
2022-10-08T11:11:09.043Z,5.80
2022-10-08T11:14:06.785Z,4.30
2022-10-08T11:16:47.904Z,4.60
2022-10-08T11:19:55.634Z,6.50
2022-10-08T11:22:40.421Z,4.50
2022-10-08T11:25:55.719Z,5.40
2022-10-08T11:28:51.062Z,4.20
2022-10-08T11:31:44.337Z,2.70
2022-10-08T11:34:31.991Z,5.50
2022-10-08T11:37:10.617Z,3.20
2022-10-08T11:39:45.439Z,3.30
2022-10-08T11:42:37.881Z,5.00
2022-10-08T11:45:29.286Z,3.50
2022-10-08T11:47:59.090Z,2.80
2022-10-08T11:50:33.547Z,2.70
2022-10-08T11:53:20.827Z,2.10
2022-10-08T11:55:59.435Z,5.10
2022-10-08T11:58:33.902Z,2.70
2022-10-08T12:01:10.037Z,2.50
2022-10-08T12:03:42.485Z,4.00
2022-10-08T12:06:27.969Z,4.10
2022-10-08T12:09:07.016Z,2.60
2022-10-08T12:11:36.155Z,3.00
2022-10-08T12:14:15.291Z,3.70
2022-10-08T12:16:48.315Z,3.20
2022-10-08T12:19:36.017Z,3.10
2022-10-08T12:22:18.686Z,3.50
2022-10-08T12:24:50.332Z,4.50
2022-10-08T12:27:17.525Z,3.90
2022-10-08T12:30:13.904Z,4.50
2022-10-08T12:32:43.827Z,5.00
2022-10-08T12:35:37.174Z,2.60
2022-10-08T12:38:29.873Z,4.40
2022-10-08T12:41:29.837Z,4.00
2022-10-08T12:44:08.633Z,2.80
2022-10-08T12:46:57.345Z,1.90
2022-10-08T12:49:40.857Z,4.70
2022-10-08T12:52:11.825Z,2.80
2022-10-08T12:54:52.663Z,3.40
2022-10-08T12:57:30.148Z,2.50
2022-10-08T13:00:00.711Z,4.90
2022-10-08T13:02:39.583Z,1.70
2022-10-08T13:05:34.149Z,1.80
2022-10-08T13:08:30.931Z,3.60
2022-10-08T13:11:02.225Z,3.40
2022-10-08T13:13:39.489Z,4.80
2022-10-08T13:16:11.999Z,2.80
2022-10-08T13:18:48.032Z,3.00
2022-10-08T13:21:41.175Z,3.90
2022-10-08T13:24:14.076Z,2.40
2022-10-08T13:26:45.951Z,6.10
2022-10-08T13:29:21.808Z,2.10
2022-10-08T13:31:56.323Z,3.80
2022-10-08T13:34:28.639Z,4.60
2022-10-08T13:37:00.384Z,3.90
2022-10-08T13:39:36.726Z,4.90
2022-10-08T13:42:09.184Z,3.70
2022-10-08T13:44:40.668Z,5.00
2022-10-08T13:47:13.604Z,4.50
2022-10-08T13:49:40.762Z,3.60
2022-10-08T13:52:16.099Z,2.70
2022-10-08T13:54:43.806Z,4.30
2022-10-08T13:57:10.890Z,3.20
2022-10-08T13:59:37.799Z,2.40
2022-10-08T14:02:06.568Z,4.10
2022-10-08T14:04:33.410Z,6.20
2022-10-08T14:07:02.399Z,4.00
2022-10-08T14:09:30.658Z,5.60
2022-10-08T14:12:01.409Z,7.90
2022-10-08T14:14:28.696Z,5.30
2022-10-08T14:16:55.529Z,3.50
2022-10-08T14:19:22.782Z,3.70
2022-10-08T14:21:55.130Z,3.00
2022-10-08T14:24:22.184Z,5.10
2022-10-08T14:26:48.894Z,4.50
2022-10-08T14:29:15.679Z,5.50
2022-10-08T14:31:42.407Z,4.50
2022-10-08T14:34:09.216Z,3.80
2022-10-08T14:36:40.970Z,3.10
2022-10-08T14:39:10.042Z,4.40
2022-10-08T14:41:40.095Z,4.10
2022-10-08T14:44:06.900Z,5.10
2022-10-08T14:46:36.430Z,2.90
2022-10-08T14:49:04.817Z,4.90
2022-10-08T14:51:38.252Z,4.00
2022-10-08T14:54:10.338Z,5.70
2022-10-08T14:56:42.888Z,5.40
2022-10-08T14:59:11.052Z,4.30
2022-10-08T15:01:38.182Z,4.70
2022-10-08T15:04:06.432Z,5.20
2022-10-08T15:06:34.365Z,6.40
2022-10-08T15:09:01.221Z,4.70
2022-10-08T15:11:27.980Z,5.40
2022-10-08T15:13:55.519Z,5.50
2022-10-08T15:16:22.854Z,5.60
2022-10-08T15:18:49.661Z,4.50
2022-10-08T15:21:18.061Z,4.60
2022-10-08T15:23:45.187Z,5.10
2022-10-08T15:26:18.100Z,5.10
2022-10-08T15:28:52.946Z,3.30
2022-10-08T15:31:25.031Z,6.90
2022-10-08T15:33:54.365Z,4.70
2022-10-08T15:36:37.158Z,3.60
2022-10-08T15:39:04.977Z,5.60
2022-10-08T15:41:36.775Z,3.10
2022-10-08T15:44:29.044Z,3.90
2022-10-08T15:47:11.513Z,4.70
2022-10-08T15:49:42.131Z,4.70
2022-10-08T15:52:13.442Z,3.90
2022-10-08T15:54:41.448Z,3.90
2022-10-08T15:57:11.547Z,4.50
2022-10-08T15:59:38.342Z,4.50
2022-10-08T16:02:06.567Z,6.70
2022-10-08T16:04:33.936Z,5.80
2022-10-08T16:07:00.693Z,5.20
2022-10-08T16:09:28.552Z,5.30
2022-10-08T16:11:56.047Z,3.40
2022-10-08T16:14:25.834Z,6.70
2022-10-08T16:16:54.340Z,4.60
2022-10-08T16:19:27.044Z,5.40
2022-10-08T16:21:58.248Z,3.70
2022-10-08T16:24:25.396Z,4.20
2022-10-08T16:26:52.345Z,4.70
2022-10-08T16:29:19.584Z,4.20
2022-10-08T16:31:47.586Z,4.20
2022-10-08T16:34:14.158Z,5.50
2022-10-08T16:36:41.787Z,5.50
2022-10-08T16:39:11.460Z,5.80
2022-10-08T16:41:38.382Z,6.70
2022-10-08T16:44:13.249Z,3.00
2022-10-08T16:46:45.076Z,6.20
2022-10-08T16:49:26.103Z,2.80
2022-10-08T16:52:02.315Z,4.40
2022-10-08T16:54:29.422Z,3.90
2022-10-08T16:56:56.906Z,3.70
2022-10-08T16:59:26.146Z,5.10
2022-10-08T17:01:56.645Z,5.00
2022-10-08T17:04:25.689Z,4.90
2022-10-08T17:06:52.754Z,4.10
2022-10-08T17:09:20.544Z,6.20
2022-10-08T17:11:47.484Z,5.30
2022-10-08T17:14:14.220Z,6.20
2022-10-08T17:16:43.549Z,3.10
2022-10-08T17:19:10.776Z,3.60
2022-10-08T17:21:38.317Z,3.80
2022-10-08T17:24:05.975Z,5.20
2022-10-08T17:26:34.376Z,4.70
2022-10-08T17:29:08.185Z,5.00
2022-10-08T17:31:36.601Z,4.80
2022-10-08T17:34:05.458Z,6.00
2022-10-08T17:36:36.309Z,4.30
2022-10-08T17:39:07.346Z,4.80
2022-10-08T17:41:37.810Z,4.70
2022-10-08T17:44:08.702Z,5.40
2022-10-08T17:46:46.118Z,5.20
2022-10-08T17:49:16.633Z,4.70
2022-10-08T17:51:44.591Z,7.90
2022-10-08T17:54:19.240Z,7.10
2022-10-08T17:56:47.383Z,5.10
2022-10-08T17:59:20.015Z,4.90
2022-10-08T18:01:46.901Z,4.70
2022-10-08T18:04:17.476Z,4.20
2022-10-08T18:06:46.450Z,5.80
2022-10-08T18:09:20.676Z,9.20
2022-10-08T18:11:52.147Z,5.00
2022-10-08T18:14:20.532Z,4.40
2022-10-08T18:16:48.680Z,5.90
2022-10-08T18:19:17.566Z,6.10
2022-10-08T18:23:08.324Z,5.20
2022-10-08T18:25:35.951Z,5.60
2022-10-08T18:28:03.132Z,8.90
2022-10-08T18:30:29.898Z,6.40
2022-10-08T18:32:59.002Z,5.30
2022-10-08T18:35:25.766Z,6.00
2022-10-08T18:37:52.637Z,9.20
2022-10-08T18:40:19.423Z,6.80
2022-10-08T18:42:46.390Z,6.80
2022-10-08T18:45:13.364Z,9.60
2022-10-08T18:47:40.099Z,5.20
2022-10-08T18:50:07.556Z,6.00
2022-10-08T18:52:34.499Z,8.10
2022-10-08T18:55:01.482Z,6.00
2022-10-08T18:57:28.387Z,5.80
2022-10-08T18:59:55.104Z,6.10
2022-10-08T19:02:22.108Z,6.80
2022-10-08T19:04:49.950Z,5.30
2022-10-08T19:07:16.799Z,6.20
2022-10-08T19:09:43.704Z,4.50
2022-10-08T19:12:10.562Z,7.60
2022-10-08T19:14:38.431Z,7.30
2022-10-08T19:17:05.159Z,5.20
2022-10-08T19:19:31.902Z,6.00
2022-10-08T19:22:02.804Z,6.80
2022-10-08T19:24:29.932Z,9.80
2022-10-08T19:26:57.622Z,5.70
2022-10-08T19:29:29.380Z,10.50
2022-10-08T19:31:57.841Z,6.60
2022-10-08T19:34:27.007Z,8.30
2022-10-08T19:37:00.007Z,7.50
2022-10-08T19:39:31.050Z,7.80
2022-10-08T19:41:57.886Z,7.70
2022-10-08T19:44:24.849Z,8.40
2022-10-08T19:46:52.137Z,12.30
2022-10-08T19:49:19.509Z,7.60
2022-10-08T19:51:46.661Z,9.70
2022-10-08T19:54:15.283Z,7.80
2022-10-08T19:56:42.491Z,8.40
2022-10-08T19:59:11.594Z,8.00
2022-10-08T20:01:39.906Z,8.00
2022-10-08T20:04:08.682Z,5.90
2022-10-08T20:06:39.853Z,7.00
2022-10-08T20:09:11.848Z,9.40
2022-10-08T20:11:41.384Z,9.50
2022-10-08T20:14:08.647Z,9.80
2022-10-08T20:16:39.888Z,7.40
2022-10-08T20:19:18.706Z,10.30
2022-10-08T20:21:46.427Z,8.00
2022-10-08T20:24:14.081Z,8.50
2022-10-08T20:26:42.949Z,9.40
2022-10-08T20:29:17.760Z,10.00
2022-10-08T20:31:54.137Z,9.20
2022-10-08T20:34:27.080Z,8.50
2022-10-08T20:36:54.562Z,9.50
2022-10-08T20:39:22.412Z,9.20
2022-10-08T20:41:50.122Z,10.80
2022-10-08T20:44:17.034Z,12.10
2022-10-08T20:46:44.707Z,10.80
2022-10-08T20:49:13.809Z,13.80
2022-10-08T20:51:42.962Z,7.90
2022-10-08T20:54:13.679Z,11.00
2022-10-08T20:56:41.613Z,10.80
2022-10-08T20:59:13.732Z,8.80
2022-10-08T21:01:40.781Z,9.10
2022-10-08T21:04:08.711Z,8.70
2022-10-08T21:06:43.850Z,11.50
2022-10-08T21:09:12.529Z,7.20
2022-10-08T21:11:40.250Z,9.00
2022-10-08T21:14:09.882Z,9.00
2022-10-08T21:16:40.133Z,9.60
2022-10-08T21:19:15.850Z,9.50
2022-10-08T21:21:42.496Z,10.80
2022-10-08T21:24:09.683Z,10.50
2022-10-08T21:26:42.078Z,10.20
2022-10-08T21:29:13.676Z,9.70
2022-10-08T21:31:42.232Z,9.70
2022-10-08T21:34:12.612Z,10.60
2022-10-08T21:36:42.203Z,8.50
2022-10-08T21:39:15.340Z,9.40
2022-10-08T21:41:42.232Z,13.00
2022-10-08T21:44:09.434Z,11.90
2022-10-08T21:46:40.161Z,12.40
2022-10-08T21:49:27.563Z,9.60
2022-10-08T21:51:54.364Z,12.60
2022-10-08T21:54:21.063Z,9.60
2022-10-08T21:56:47.753Z,11.10
2022-10-08T21:59:16.773Z,8.10
2022-10-08T22:01:52.233Z,8.50
2022-10-08T22:04:24.519Z,10.50
2022-10-08T22:06:55.176Z,10.20
2022-10-08T22:09:26.680Z,10.00
2022-10-08T22:11:55.957Z,9.60
2022-10-08T22:14:23.775Z,9.80
2022-10-08T22:16:50.765Z,9.00
2022-10-08T22:19:18.375Z,7.30
2022-10-08T22:21:45.463Z,10.10
2022-10-08T22:24:12.245Z,11.20
2022-10-08T22:26:43.316Z,12.00
2022-10-08T22:29:10.593Z,8.00
2022-10-08T22:31:38.145Z,10.20
2022-10-08T22:34:05.561Z,9.80
2022-10-08T22:36:36.434Z,12.60
2022-10-08T22:39:03.327Z,9.80
2022-10-08T22:41:32.755Z,13.20
2022-10-08T22:44:00.383Z,10.70
2022-10-08T22:46:35.476Z,11.00
2022-10-08T22:49:08.912Z,9.80
2022-10-08T22:51:37.604Z,10.10
2022-10-08T22:54:05.071Z,10.30
2022-10-08T22:56:32.269Z,8.70
2022-10-08T22:59:00.682Z,9.40
2022-10-08T23:01:29.867Z,11.40
2022-10-08T23:03:57.850Z,8.90
2022-10-08T23:06:31.442Z,11.10
2022-10-08T23:09:02.173Z,10.00
2022-10-08T23:11:30.114Z,11.80
2022-10-08T23:13:59.100Z,10.50
2022-10-08T23:16:28.772Z,13.90
2022-10-08T23:19:05.751Z,9.30
2022-10-08T23:21:33.661Z,10.80
2022-10-08T23:24:00.549Z,10.30
2022-10-08T23:26:28.417Z,9.70
2022-10-08T23:29:00.499Z,10.00
2022-10-08T23:31:31.331Z,9.60
2022-10-08T23:34:03.483Z,13.10
2022-10-08T23:36:34.442Z,8.90
2022-10-08T23:39:01.779Z,9.80
2022-10-08T23:41:28.984Z,8.10
2022-10-08T23:43:58.100Z,9.40
2022-10-08T23:46:28.433Z,13.20
2022-10-08T23:48:56.330Z,10.10
2022-10-08T23:51:25.060Z,11.60
2022-10-08T23:53:52.623Z,9.50
2022-10-08T23:56:20.270Z,11.40
2022-10-08T23:58:47.647Z,11.50
